Time;durP1;ratioP1;P1;durP2;ratioP2;P2;SDS_P1;SDS_P2;PMS_P1;PMS_P2;Temp;Humidity;BMP_temperature;BMP_pressure;BME280_temperature;BME280_humidity;BME280_pressure;Samples;Min_cycle;Max_cycle;Signal;HPM_P1;HPM_P2
2021/06/18 00:01:00;;;;;;;7.72;2.70;;;15.40;66.40;;;;;;5092070;28;20051;-69
2021/06/18 00:03:28;;;;;;;6.88;2.70;;;15.40;66.60;;;;;;5093992;28;20051;-70
2021/06/18 00:05:56;;;;;;;9.85;2.35;;;15.40;66.80;;;;;;5093783;28;20044;-69
2021/06/18 00:08:25;;;;;;;6.53;2.55;;;15.30;67.00;;;;;;5092941;28;20059;-69
2021/06/18 00:10:53;;;;;;;5.45;2.60;;;15.30;67.20;;;;;;5093034;28;20366;-69
2021/06/18 00:13:21;;;;;;;11.00;2.80;;;15.30;67.30;;;;;;5092780;28;20063;-69
2021/06/18 00:15:49;;;;;;;9.15;3.00;;;15.30;67.50;;;;;;5092606;28;20055;-69
2021/06/18 00:18:16;;;;;;;16.27;3.20;;;15.30;67.70;;;;;;5094478;28;20496;-69
2021/06/18 00:20:44;;;;;;;9.25;2.97;;;15.30;67.90;;;;;;5093745;28;20528;-69
2021/06/18 00:23:12;;;;;;;9.95;3.30;;;15.20;68.00;;;;;;5094407;28;20048;-69
2021/06/18 00:25:42;;;;;;;11.02;3.33;;;15.20;68.20;;;;;;5094369;28;20052;-69
2021/06/18 00:28:18;;;;;;;9.40;3.25;;;15.20;68.40;;;;;;5077115;28;20040;-69
2021/06/18 00:30:46;;;;;;;8.82;3.17;;;15.10;68.50;;;;;;5092895;28;20382;-69
2021/06/18 00:33:14;;;;;;;8.43;3.60;;;15.10;68.70;;;;;;5093343;28;20074;-69
2021/06/18 00:35:41;;;;;;;8.15;3.13;;;15.10;68.90;;;;;;5094384;28;20415;-69
2021/06/18 00:38:09;;;;;;;8.52;3.60;;;15.10;69.10;;;;;;5076830;28;20059;-69
2021/06/18 00:40:37;;;;;;;11.73;3.72;;;15.00;69.20;;;;;;5058055;28;20044;-69
2021/06/18 00:43:05;;;;;;;11.88;3.63;;;15.00;69.40;;;;;;5094379;28;20070;-69
2021/06/18 00:45:33;;;;;;;6.35;3.50;;;15.00;69.50;;;;;;5094235;28;20048;-69
2021/06/18 00:48:02;;;;;;;11.43;3.60;;;15.00;69.70;;;;;;5075677;28;20048;-69
2021/06/18 00:50:30;;;;;;;8.40;3.50;;;15.00;69.80;;;;;;5076612;28;20044;-69
2021/06/18 00:52:58;;;;;;;10.43;3.83;;;14.90;69.90;;;;;;5094407;28;20220;-69
2021/06/18 00:55:27;;;;;;;15.15;4.15;;;14.90;70.10;;;;;;5093151;28;20055;-69
2021/06/18 00:57:55;;;;;;;11.68;4.20;;;14.90;70.30;;;;;;5094326;28;20048;-69
2021/06/18 01:00:23;;;;;;;15.27;4.18;;;14.90;70.50;;;;;;5092702;28;20382;-69
2021/06/18 01:02:51;;;;;;;14.32;4.15;;;14.80;70.70;;;;;;5094016;28;20059;-69
2021/06/18 01:05:21;;;;;;;14.60;4.25;;;14.80;70.90;;;;;;5094320;28;20044;-69
2021/06/18 01:08:05;;;;;;;11.10;4.10;;;14.80;71.10;;;;;;5091996;28;20339;-69
2021/06/18 01:10:50;;;;;;;;;;;14.80;71.20;;;;;;5077548;28;20043;-69
2021/06/18 01:13:39;;;;;;;15.23;3.75;;;14.80;71.10;;;;;;5092804;28;19923;-69
2021/06/18 01:16:32;;;;;;;8.63;3.63;;;14.80;71.10;;;;;;5076549;28;20358;-69
2021/06/18 01:19:08;;;;;;;11.18;3.83;;;14.80;71.10;;;;;;5094133;28;20059;-69
2021/06/18 01:21:46;;;;;;;11.88;3.65;;;14.80;71.10;;;;;;5092909;28;20056;-69
2021/06/18 01:24:22;;;;;;;10.65;3.50;;;14.80;71.30;;;;;;5093520;28;20051;-69
2021/06/18 01:27:15;;;;;;;11.18;3.45;;;14.80;71.30;;;;;;5091934;28;20052;-69
2021/06/18 01:29:51;;;;;;;11.23;3.50;;;14.80;71.30;;;;;;5095860;28;20055;-69
2021/06/18 01:32:28;;;;;;;8.55;3.25;;;14.80;71.20;;;;;;5097853;28;20078;-69
2021/06/18 01:34:58;;;;;;;8.13;3.50;;;14.80;71.20;;;;;;5097046;28;20047;-69
2021/06/18 01:37:29;;;;;;;7.57;3.20;;;14.70;71.20;;;;;;5079665;28;20048;-69
2021/06/18 01:40:05;;;;;;;11.70;3.78;;;14.70;71.30;;;;;;5079014;28;20047;-69
2021/06/18 01:42:41;;;;;;;8.65;3.20;;;14.70;71.30;;;;;;5080209;28;20059;-69
2021/06/18 01:45:12;;;;;;;15.73;3.70;;;14.70;71.30;;;;;;5097195;28;20044;-69
2021/06/18 01:47:43;;;;;;;10.60;3.35;;;14.70;71.30;;;;;;5096356;28;20478;-69
2021/06/18 01:50:15;;;;;;;10.10;3.17;;;14.70;71.20;;;;;;5079803;28;20374;-69
2021/06/18 01:52:49;;;;;;;11.35;3.30;;;14.70;71.20;;;;;;5094977;28;20051;-69
2021/06/18 01:55:22;;;;;;;12.52;3.47;;;14.70;71.20;;;;;;5081453;28;20047;-69
2021/06/18 01:57:55;;;;;;;;;;;14.60;71.20;;;;;;5100639;28;20051;-70
2021/06/18 02:00:24;;;;;;;8.37;3.00;;;14.70;71.20;;;;;;5109539;28;19931;-69
2021/06/18 02:02:53;;;;;;;9.57;2.88;;;14.60;71.00;;;;;;5097052;28;20466;-69
2021/06/18 02:05:22;;;;;;;10.40;2.70;;;14.60;71.10;;;;;;5097144;28;20052;-70
2021/06/18 02:07:55;;;;;;;9.20;3.15;;;14.60;71.20;;;;;;5095850;28;20048;-69
2021/06/18 02:10:38;;;;;;;8.38;2.95;;;14.60;71.20;;;;;;5097554;28;20381;-69
2021/06/18 02:13:08;;;;;;;11.52;3.20;;;14.60;71.20;;;;;;5097104;28;20493;-69
2021/06/18 02:15:39;;;;;;;9.27;3.03;;;14.60;71.20;;;;;;5095842;28;20062;-69
2021/06/18 02:18:11;;;;;;;7.40;2.75;;;14.60;71.20;;;;;;5096183;28;20075;-69
2021/06/18 02:20:40;;;;;;;9.98;3.25;;;14.60;71.20;;;;;;5095712;28;20047;-69
2021/06/18 02:23:10;;;;;;;9.32;3.17;;;14.60;71.20;;;;;;5079788;28;20040;-69
2021/06/18 02:25:38;;;;;;;11.35;3.50;;;14.60;71.10;;;;;;5096631;28;20066;-69
2021/06/18 02:28:08;;;;;;;10.35;2.60;;;14.60;71.10;;;;;;5095880;28;20374;-69
2021/06/18 02:30:36;;;;;;;10.52;2.92;;;14.60;71.00;;;;;;5079028;28;20048;-69
2021/06/18 02:33:11;;;;;;;18.50;2.92;;;14.60;71.00;;;;;;5096538;28;20067;-69
2021/06/18 02:35:40;;;;;;;14.07;3.28;;;14.60;71.00;;;;;;5078410;28;20048;-69
2021/06/18 02:38:09;;;;;;;7.95;2.92;;;14.60;70.90;;;;;;5095571;28;20048;-69
2021/06/18 02:40:37;;;;;;;10.75;3.00;;;14.60;70.90;;;;;;5095581;28;20071;-69
2021/06/18 02:43:06;;;;;;;10.88;3.22;;;14.60;70.90;;;;;;5095527;28;20044;-69
2021/06/18 02:45:34;;;;;;;13.10;2.80;;;14.60;71.00;;;;;;5096210;28;20047;-69
2021/06/18 02:48:20;;;;;;;14.02;3.38;;;14.60;71.00;;;;;;5095052;28;20070;-69
2021/06/18 02:51:16;;;;;;;10.23;3.00;;;14.60;71.00;;;;;;5096908;28;20059;-69
2021/06/18 02:53:50;;;;;;;14.15;3.45;;;14.60;71.10;;;;;;5082698;28;20048;-69
2021/06/18 02:56:37;;;;;;;11.80;3.20;;;14.60;71.00;;;;;;5095550;28;20067;-69
2021/06/18 02:59:13;;;;;;;9.60;2.72;;;14.60;71.00;;;;;;5095468;28;20386;-69
2021/06/18 03:01:42;;;;;;;8.82;2.90;;;14.60;71.00;;;;;;5094319;28;20044;-69
2021/06/18 03:04:32;;;;;;;9.75;3.17;;;14.50;71.00;;;;;;5095862;28;20059;-69
2021/06/18 03:07:06;;;;;;;9.60;3.20;;;14.50;71.00;;;;;;5094201;28;20130;-69
2021/06/18 03:09:38;;;;;;;12.57;3.03;;;14.50;70.90;;;;;;5096145;28;20051;-69
2021/06/18 03:12:10;;;;;;;11.00;3.08;;;14.40;70.80;;;;;;5095969;28;20047;-69
2021/06/18 03:14:42;;;;;;;11.23;3.30;;;14.40;70.80;;;;;;5094464;28;20477;-69
2021/06/18 03:17:13;;;;;;;12.13;3.15;;;14.40;70.80;;;;;;5095726;28;20062;-69
2021/06/18 03:19:43;;;;;;;12.68;2.83;;;14.30;70.80;;;;;;5095878;28;20058;-69
2021/06/18 03:22:13;;;;;;;8.50;2.75;;;14.30;70.80;;;;;;5093707;28;20056;-69
2021/06/18 03:24:42;;;;;;;9.82;2.85;;;14.20;71.00;;;;;;5095904;28;20063;-69
2021/06/18 03:27:11;;;;;;;13.23;2.90;;;14.10;71.10;;;;;;5094342;28;20055;-69
2021/06/18 03:29:40;;;;;;;11.00;2.40;;;14.10;71.10;;;;;;5095171;28;20051;-69
2021/06/18 03:32:09;;;;;;;10.82;2.60;;;14.10;71.20;;;;;;5095311;28;20062;-69
2021/06/18 03:34:38;;;;;;;9.27;3.05;;;14.10;71.20;;;;;;5094459;28;20409;-69
2021/06/18 03:37:06;;;;;;;14.13;3.00;;;14.10;71.20;;;;;;5095663;28;20048;-69
2021/06/18 03:39:34;;;;;;;9.55;2.95;;;14.10;71.30;;;;;;5095409;28;20048;-69
2021/06/18 03:42:04;;;;;;;12.80;2.83;;;14.00;71.30;;;;;;5094387;28;20052;-69
2021/06/18 03:44:32;;;;;;;9.48;2.38;;;14.00;71.40;;;;;;5094902;28;20059;-69
2021/06/18 03:47:04;;;;;;;12.30;3.20;;;14.00;71.50;;;;;;5094461;28;20059;-69
2021/06/18 03:49:34;;;;;;;12.70;2.83;;;14.00;71.70;;;;;;5095311;28;20063;-69
2021/06/18 03:52:03;;;;;;;14.15;2.53;;;14.00;71.70;;;;;;5094879;28;20051;-69
2021/06/18 03:54:32;;;;;;;15.98;3.10;;;14.00;71.70;;;;;;5094248;28;20052;-69
2021/06/18 03:57:02;;;;;;;9.68;2.67;;;13.90;71.60;;;;;;5076854;28;20377;-69
2021/06/18 03:59:32;;;;;;;13.30;3.13;;;13.90;71.60;;;;;;5095219;28;20062;-69
2021/06/18 04:02:03;;;;;;;11.27;2.90;;;13.80;71.50;;;;;;5062121;28;20039;-69
2021/06/18 04:04:32;;;;;;;12.75;2.90;;;13.90;71.60;;;;;;5093899;28;20055;-69
2021/06/18 04:07:02;;;;;;;14.60;2.75;;;13.80;71.60;;;;;;5093437;28;20048;-69
2021/06/18 04:09:30;;;;;;;14.45;2.97;;;13.90;71.70;;;;;;5095023;28;20493;-69
2021/06/18 04:12:00;;;;;;;11.38;3.17;;;13.80;71.80;;;;;;5056854;28;20045;-69
2021/06/18 04:14:28;;;;;;;16.38;2.53;;;13.80;71.90;;;;;;5084281;28;20059;-69
2021/06/18 04:16:57;;;;;;;10.40;2.70;;;13.80;71.90;;;;;;5094742;28;20468;-69
2021/06/18 04:19:26;;;;;;;13.07;2.78;;;13.80;72.00;;;;;;5095248;28;20383;-69
2021/06/18 04:21:54;;;;;;;11.18;2.50;;;13.80;72.10;;;;;;5093637;28;20048;-69
2021/06/18 04:24:22;;;;;;;11.40;2.80;;;13.80;72.10;;;;;;5093888;28;20048;-69
2021/06/18 04:26:50;;;;;;;10.75;2.50;;;13.70;72.30;;;;;;5093671;28;20454;-69
2021/06/18 04:29:18;;;;;;;10.88;2.70;;;13.70;72.40;;;;;;5093840;28;20466;-69
2021/06/18 04:31:46;;;;;;;14.27;2.67;;;13.70;72.50;;;;;;5094572;28;20044;-69
2021/06/18 04:34:13;;;;;;;14.18;3.15;;;13.60;72.60;;;;;;5093265;28;20359;-69
2021/06/18 04:36:42;;;;;;;10.60;2.80;;;13.60;72.70;;;;;;5094768;28;20052;-69
2021/06/18 04:39:10;;;;;;;9.10;2.30;;;13.60;72.90;;;;;;5094884;28;20066;-69
2021/06/18 04:41:37;;;;;;;12.05;2.95;;;13.60;72.90;;;;;;5075889;28;20059;-69
2021/06/18 04:44:06;;;;;;;8.40;2.80;;;13.50;73.10;;;;;;5094313;28;20063;-69
2021/06/18 04:46:35;;;;;;;9.98;2.80;;;13.60;73.20;;;;;;5093019;28;20380;-69
2021/06/18 04:49:03;;;;;;;8.80;2.88;;;13.50;73.30;;;;;;5094515;28;20048;-69
2021/06/18 04:51:31;;;;;;;9.73;2.60;;;13.50;73.40;;;;;;5094312;28;20048;-69
2021/06/18 04:53:59;;;;;;;11.90;3.03;;;13.50;73.60;;;;;;5093528;28;20100;-69
2021/06/18 04:56:27;;;;;;;15.30;3.08;;;13.50;73.70;;;;;;5094304;28;20390;-69
2021/06/18 04:58:58;;;;;;;11.70;2.90;;;13.50;73.80;;;;;;5093685;28;20055;-69
2021/06/18 05:01:26;;;;;;;10.40;2.90;;;13.50;73.80;;;;;;5093983;28;20063;-69
2021/06/18 05:03:54;;;;;;;16.33;3.45;;;13.50;73.80;;;;;;5098374;28;20048;-69
2021/06/18 05:06:22;;;;;;;12.02;2.50;;;13.50;73.80;;;;;;5098344;28;20044;-69
2021/06/18 05:08:51;;;;;;;13.02;3.00;;;13.50;73.90;;;;;;5096979;28;20044;-69
2021/06/18 05:11:22;;;;;;;9.55;2.70;;;13.50;73.90;;;;;;5098383;28;20056;-69
2021/06/18 05:13:50;;;;;;;10.23;2.85;;;13.60;73.90;;;;;;5097110;28;20036;-69
2021/06/18 05:16:19;;;;;;;11.57;3.05;;;13.60;73.90;;;;;;5081292;28;20055;-69
2021/06/18 05:18:47;;;;;;;9.25;2.75;;;13.60;73.90;;;;;;5098093;28;20048;-69
2021/06/18 05:21:16;;;;;;;12.20;2.92;;;13.60;74.00;;;;;;5097102;28;20071;-69
2021/06/18 05:23:44;;;;;;;13.82;2.80;;;13.60;74.00;;;;;;5097897;28;20059;-69
2021/06/18 05:26:13;;;;;;;15.50;3.33;;;13.70;74.10;;;;;;5098604;28;20369;-69
2021/06/18 05:28:41;;;;;;;9.93;3.13;;;13.70;74.10;;;;;;5096380;28;20063;-69
2021/06/18 05:31:09;;;;;;;13.50;3.42;;;13.70;74.00;;;;;;5098097;28;20044;-69
2021/06/18 05:33:37;;;;;;;12.60;3.22;;;13.80;74.00;;;;;;5096743;28;20051;-69
2021/06/18 05:36:05;;;;;;;13.55;3.03;;;13.80;73.90;;;;;;5080254;28;20048;-69
2021/06/18 05:38:33;;;;;;;11.10;3.17;;;13.80;73.90;;;;;;5097915;28;20052;-69
2021/06/18 05:41:01;;;;;;;9.27;2.70;;;13.80;73.80;;;;;;5096191;28;20048;-69
2021/06/18 05:43:30;;;;;;;11.88;3.30;;;13.80;73.80;;;;;;5079972;28;20055;-69
2021/06/18 05:45:58;;;;;;;12.15;2.80;;;13.80;73.90;;;;;;5079528;28;20374;-69
2021/06/18 05:48:26;;;;;;;12.80;3.50;;;13.80;73.90;;;;;;5096491;28;20397;-69
2021/06/18 05:50:55;;;;;;;10.32;3.22;;;13.80;73.90;;;;;;5097414;28;20048;-69
2021/06/18 05:53:24;;;;;;;9.05;2.78;;;13.80;73.90;;;;;;5096383;28;20048;-69
2021/06/18 05:55:52;;;;;;;10.10;2.95;;;13.80;74.00;;;;;;5095720;28;20052;-69
2021/06/18 05:58:20;;;;;;;9.60;3.35;;;13.80;74.00;;;;;;5097388;28;20059;-69
2021/06/18 06:00:48;;;;;;;11.70;2.92;;;13.90;74.00;;;;;;5096592;28;20055;-69
2021/06/18 06:03:16;;;;;;;11.13;2.92;;;13.90;74.00;;;;;;5096170;28;20060;-69
2021/06/18 06:05:44;;;;;;;18.85;3.17;;;13.90;73.90;;;;;;5097344;28;20489;-69
2021/06/18 06:08:13;;;;;;;10.05;3.10;;;13.90;73.90;;;;;;5095952;28;20063;-69
2021/06/18 06:10:50;;;;;;;8.85;3.42;;;14.00;73.80;;;;;;5097740;28;20052;-69
2021/06/18 06:13:19;;;;;;;9.98;2.50;;;14.00;73.80;;;;;;5095383;28;20059;-69
2021/06/18 06:15:49;;;;;;;11.40;2.67;;;14.00;73.70;;;;;;5096978;28;20052;-69
2021/06/18 06:18:17;;;;;;;11.25;2.70;;;14.10;73.60;;;;;;5078546;28;20051;-69
2021/06/18 06:20:46;;;;;;;11.40;3.08;;;14.10;73.50;;;;;;5095926;28;20052;-69
2021/06/18 06:23:15;;;;;;;12.55;2.90;;;14.20;73.30;;;;;;5097332;28;20062;-69
2021/06/18 06:25:43;;;;;;;12.32;3.03;;;14.20;73.20;;;;;;5096042;28;20044;-69
2021/06/18 06:28:11;;;;;;;11.63;2.92;;;14.30;73.00;;;;;;5098195;28;20040;-69
2021/06/18 06:30:40;;;;;;;12.13;2.78;;;14.30;72.80;;;;;;5084517;28;20051;-69
2021/06/18 06:33:08;;;;;;;14.73;3.08;;;14.30;72.70;;;;;;5104392;28;20047;-69
2021/06/18 06:35:36;;;;;;;12.02;2.67;;;14.40;72.50;;;;;;5101721;28;20055;-69
2021/06/18 06:38:05;;;;;;;11.23;2.28;;;14.40;72.20;;;;;;5100992;28;20048;-69
2021/06/18 06:40:33;;;;;;;9.90;2.17;;;14.50;71.90;;;;;;5104774;28;20056;-69
2021/06/18 06:43:00;;;;;;;11.88;2.28;;;14.60;71.60;;;;;;5100258;28;20058;-69
2021/06/18 06:45:28;;;;;;;11.77;2.40;;;14.60;71.30;;;;;;5104504;28;20048;-70
2021/06/18 06:47:56;;;;;;;12.27;2.03;;;14.60;70.90;;;;;;5081275;28;20383;-69
2021/06/18 06:50:25;;;;;;;10.48;2.13;;;14.60;70.60;;;;;;5097860;28;20048;-69
2021/06/18 06:52:52;;;;;;;9.30;2.40;;;14.70;70.50;;;;;;5097606;28;20060;-69
2021/06/18 06:55:20;;;;;;;8.05;2.58;;;14.70;70.30;;;;;;5105861;28;20055;-69
2021/06/18 06:57:49;;;;;;;9.32;2.08;;;14.70;70.20;;;;;;5102810;28;20051;-69
2021/06/18 07:00:18;;;;;;;6.90;2.10;;;14.80;70.00;;;;;;5054474;28;20348;-69
2021/06/18 07:02:46;;;;;;;11.63;2.10;;;14.80;69.90;;;;;;5102293;28;20052;-69
2021/06/18 07:05:15;;;;;;;13.20;2.33;;;14.80;69.90;;;;;;5104511;28;20054;-69
2021/06/18 07:07:43;;;;;;;8.35;2.20;;;14.80;69.70;;;;;;5078423;28;20055;-69
2021/06/18 07:10:11;;;;;;;7.15;2.17;;;14.80;69.50;;;;;;5081472;28;20048;-69
2021/06/18 07:12:40;;;;;;;9.30;2.38;;;14.80;69.40;;;;;;5102239;28;20523;-69
2021/06/18 07:15:09;;;;;;;9.60;2.53;;;14.80;69.30;;;;;;5089051;28;20059;-69
2021/06/18 07:17:37;;;;;;;9.48;2.50;;;14.90;69.30;;;;;;5092461;28;20056;-69
2021/06/18 07:20:06;;;;;;;8.85;2.50;;;14.90;69.20;;;;;;5094715;28;20492;-69
2021/06/18 07:22:34;;;;;;;13.00;2.60;;;14.90;69.40;;;;;;5100018;28;20052;-69
2021/06/18 07:25:02;;;;;;;13.65;2.58;;;14.90;69.30;;;;;;5086906;28;20371;-69
2021/06/18 07:27:32;;;;;;;7.20;2.42;;;15.00;69.30;;;;;;5099135;28;20386;-69
2021/06/18 07:30:00;;;;;;;9.48;2.45;;;14.90;69.30;;;;;;5094743;28;20044;-69
2021/06/18 07:32:28;;;;;;;6.50;2.50;;;15.00;69.20;;;;;;5109027;28;20051;-69
2021/06/18 07:34:56;;;;;;;7.32;2.40;;;14.90;69.10;;;;;;5099453;28;20420;-69
2021/06/18 07:37:25;;;;;;;8.50;2.38;;;14.90;69.20;;;;;;5103170;28;20048;-69
2021/06/18 07:39:52;;;;;;;8.10;2.30;;;14.90;69.20;;;;;;5094767;28;20048;-69
2021/06/18 07:42:29;;;;;;;10.57;2.65;;;15.00;69.20;;;;;;5096296;28;20044;-69
2021/06/18 07:44:57;;;;;;;14.52;3.22;;;15.00;69.00;;;;;;5104733;28;20382;-69
2021/06/18 07:47:26;;;;;;;12.20;2.45;;;15.00;69.00;;;;;;5098244;28;20052;-69
2021/06/18 07:49:53;;;;;;;16.13;3.17;;;15.00;69.10;;;;;;5098323;28;20051;-69
2021/06/18 07:52:22;;;;;;;9.07;2.78;;;15.10;69.20;;;;;;5087023;28;20055;-69
2021/06/18 07:54:56;;;;;;;7.60;2.78;;;15.10;69.30;;;;;;5101386;28;20044;-69
2021/06/18 07:57:24;;;;;;;7.32;2.90;;;15.20;69.30;;;;;;5068164;28;20054;-69
2021/06/18 07:59:52;;;;;;;11.70;2.53;;;15.30;69.40;;;;;;5097709;28;20039;-69
2021/06/18 08:02:20;;;;;;;7.65;2.28;;;15.30;69.40;;;;;;5095178;28;20051;-69
2021/06/18 08:04:52;;;;;;;8.80;2.10;;;15.30;69.40;;;;;;5095249;28;20374;-69
2021/06/18 08:07:21;;;;;;;8.07;2.22;;;15.40;69.30;;;;;;5100427;28;20358;-69
2021/06/18 08:09:50;;;;;;;8.13;2.20;;;15.50;69.20;;;;;;5100544;28;20077;-69
2021/06/18 08:12:20;;;;;;;17.38;2.70;;;15.50;69.20;;;;;;5095012;28;20040;-69
2021/06/18 08:14:49;;;;;;;8.30;2.10;;;15.60;69.00;;;;;;5106433;28;20365;-69
2021/06/18 08:17:19;;;;;;;6.30;2.05;;;15.60;68.70;;;;;;5098578;28;20052;-69
2021/06/18 08:19:47;;;;;;;15.13;2.25;;;15.70;68.50;;;;;;5104940;28;20052;-69
2021/06/18 08:22:14;;;;;;;8.70;2.25;;;15.70;68.30;;;;;;5095694;28;20058;-69
2021/06/18 08:24:44;;;;;;;9.27;2.25;;;15.70;68.10;;;;;;5107918;28;20048;-69
2021/06/18 08:27:12;;;;;;;13.57;2.35;;;15.70;67.90;;;;;;5077783;28;20516;-69
2021/06/18 08:29:40;;;;;;;7.00;2.05;;;15.80;67.80;;;;;;5098185;28;20043;-69
2021/06/18 08:32:08;;;;;;;9.10;2.20;;;15.80;67.50;;;;;;5095755;28;20067;-69
2021/06/18 08:34:36;;;;;;;9.45;1.98;;;15.80;67.40;;;;;;5086742;28;20043;-69
2021/06/18 08:37:05;;;;;;;9.13;2.10;;;15.80;67.40;;;;;;5095497;28;20466;-69
2021/06/18 08:39:33;;;;;;;7.85;2.42;;;15.80;67.20;;;;;;5093882;28;20055;-69
2021/06/18 08:42:03;;;;;;;7.30;2.45;;;15.80;67.10;;;;;;5076736;28;20402;-69
2021/06/18 08:44:31;;;;;;;16.23;2.13;;;15.80;67.20;;;;;;5057650;28;20057;-69
2021/06/18 08:46:59;;;;;;;5.97;2.20;;;15.90;67.10;;;;;;5067765;28;20448;-69
2021/06/18 08:49:27;;;;;;;13.07;2.45;;;15.90;67.10;;;;;;5098154;28;20040;-69
2021/06/18 08:51:55;;;;;;;10.63;2.28;;;15.90;67.00;;;;;;5064057;28;20036;-69
2021/06/18 08:54:41;;;;;;;9.70;2.50;;;16.00;66.80;;;;;;5092627;28;20052;-69
2021/06/18 08:57:12;;;;;;;10.18;2.25;;;16.00;66.70;;;;;;5084091;28;20060;-69
2021/06/18 08:59:42;;;;;;;11.85;2.10;;;16.10;66.60;;;;;;5093492;28;20063;-69
2021/06/18 09:02:10;;;;;;;11.02;2.00;;;16.10;66.40;;;;;;5092815;28;20052;-69
2021/06/18 09:05:13;;;;;;;23.55;2.30;;;16.20;66.20;;;;;;5075428;28;20362;-69
2021/06/18 09:07:54;;;;;;;21.33;2.47;;;16.30;65.80;;;;;;5065018;28;20048;-69
2021/06/18 09:10:39;;;;;;;10.02;1.90;;;16.30;65.90;;;;;;5093355;28;20047;-69
2021/06/18 09:13:20;;;;;;;10.90;2.03;;;16.30;65.70;;;;;;5092838;28;20048;-69
2021/06/18 09:15:53;;;;;;;7.95;1.67;;;16.30;65.50;;;;;;5062907;28;20362;-69
2021/06/18 09:18:22;;;;;;;;;;;16.40;65.30;;;;;;5093688;28;20116;-69
2021/06/18 09:20:52;;;;;;;9.02;1.92;;;16.50;65.20;;;;;;5092189;28;19924;-69
2021/06/18 09:23:28;;;;;;;11.07;1.95;;;16.50;65.10;;;;;;5091680;28;20040;-69
2021/06/18 09:26:16;;;;;;;9.70;2.03;;;16.60;64.90;;;;;;5079900;28;20056;-69
2021/06/18 09:29:03;;;;;;;14.38;1.98;;;16.60;64.60;;;;;;5074820;28;20052;-69
2021/06/18 09:31:49;;;;;;;8.57;1.60;;;16.70;64.40;;;;;;5082935;28;20040;-69
2021/06/18 09:34:49;;;;;;;8.38;1.70;;;16.80;64.50;;;;;;5091614;28;20157;-69
2021/06/18 09:37:20;;;;;;;6.93;1.70;;;16.80;64.40;;;;;;5095206;28;20417;-69
2021/06/18 09:40:01;;;;;;;5.25;1.73;;;16.90;64.20;;;;;;5091121;28;20044;-69
2021/06/18 09:42:37;;;;;;;8.07;2.05;;;16.90;64.00;;;;;;5094287;28;20377;-69
2021/06/18 09:45:11;;;;;;;9.20;2.20;;;17.00;63.80;;;;;;5096272;28;20059;-69
2021/06/18 09:47:41;;;;;;;8.93;2.30;;;17.00;63.90;;;;;;5085611;28;20052;-69
2021/06/18 09:50:15;;;;;;;8.68;1.90;;;17.00;63.90;;;;;;5081580;28;20059;-69
2021/06/18 09:52:44;;;;;;;9.68;2.60;;;17.00;63.70;;;;;;5105721;28;20056;-69
2021/06/18 09:55:23;;;;;;;4.63;2.10;;;17.10;63.70;;;;;;5090155;28;20047;-69
2021/06/18 09:57:55;;;;;;;9.68;2.55;;;17.10;63.40;;;;;;5103182;28;20048;-69
2021/06/18 10:00:24;;;;;;;5.75;2.40;;;17.20;63.40;;;;;;5083905;28;20059;-69
2021/06/18 10:02:55;;;;;;;10.68;2.30;;;17.30;63.30;;;;;;5096369;28;20047;-69
2021/06/18 10:05:27;;;;;;;10.95;2.53;;;17.30;63.10;;;;;;5082026;28;20058;-70
2021/06/18 10:07:56;;;;;;;7.35;2.25;;;17.30;63.20;;;;;;5084422;28;20074;-70
2021/06/18 10:10:27;;;;;;;10.15;2.40;;;17.40;63.20;;;;;;5078440;28;20505;-70
2021/06/18 10:12:56;;;;;;;8.60;2.67;;;17.50;63.10;;;;;;5095790;28;20056;-70
2021/06/18 10:15:28;;;;;;;10.45;2.70;;;17.70;62.70;;;;;;5077094;28;20398;-70
2021/06/18 10:17:58;;;;;;;9.77;2.40;;;17.70;62.20;;;;;;5078495;28;20381;-70
2021/06/18 10:20:30;;;;;;;5.40;2.42;;;17.70;62.10;;;;;;5076655;28;20067;-70
2021/06/18 10:23:16;;;;;;;7.78;2.45;;;17.80;61.90;;;;;;5078337;28;20486;-70
2021/06/18 10:26:00;;;;;;;6.78;2.72;;;17.80;61.60;;;;;;5077881;28;20059;-70
2021/06/18 10:28:30;;;;;;;;;;;17.80;61.10;;;;;;5077536;28;20040;-70
2021/06/18 10:31:00;;;;;;;13.55;3.45;;;17.90;60.80;;;;;;5064246;28;19931;-70
2021/06/18 10:33:28;;;;;;;8.15;2.78;;;17.90;60.80;;;;;;5094660;28;20048;-70
2021/06/18 10:38:29;;;;;;;11.02;2.63;;;18.00;60.60;;;;;;5095680;28;20056;-70
2021/06/18 10:41:00;;;;;;;7.30;2.78;;;18.00;60.50;;;;;;5094865;28;20052;-70
2021/06/18 10:43:56;;;;;;;6.75;3.03;;;18.20;60.40;;;;;;5094860;28;20064;-70
2021/06/18 10:46:30;;;;;;;13.90;3.53;;;18.20;59.90;;;;;;5087970;28;20052;-70
2021/06/18 10:49:08;;;;;;;8.98;3.65;;;18.20;60.00;;;;;;5077645;28;20052;-71
2021/06/18 10:51:39;;;;;;;9.23;3.53;;;18.30;59.90;;;;;;5062417;28;20461;-70
2021/06/18 10:54:36;;;;;;;13.15;3.50;;;18.30;59.60;;;;;;5093038;28;20047;-70
2021/06/18 10:57:18;;;;;;;12.52;3.65;;;18.30;59.70;;;;;;5084045;28;20052;-70
2021/06/18 10:59:53;;;;;;;9.23;3.20;;;18.20;59.70;;;;;;5060328;28;20048;-70
2021/06/18 11:02:22;;;;;;;10.18;3.92;;;18.20;59.60;;;;;;5085166;28;20044;-70
2021/06/18 11:04:53;;;;;;;10.15;3.20;;;18.20;59.40;;;;;;5083869;28;20048;-70
2021/06/18 11:07:38;;;;;;;7.18;3.45;;;18.20;59.30;;;;;;5076239;28;20397;-70
2021/06/18 11:10:17;;;;;;;10.65;3.00;;;18.10;59.40;;;;;;5096482;28;20044;-70
2021/06/18 11:13:01;;;;;;;11.90;2.95;;;18.10;59.50;;;;;;5077161;28;20524;-70
2021/06/18 11:15:30;;;;;;;10.55;2.72;;;18.10;59.40;;;;;;5092954;28;20051;-70
2021/06/18 11:18:12;;;;;;;11.45;2.53;;;18.00;59.30;;;;;;5094174;28;20052;-71
2021/06/18 11:20:46;;;;;;;9.50;2.72;;;18.00;59.20;;;;;;5079992;28;20051;-70
2021/06/18 11:23:21;;;;;;;5.85;2.20;;;18.00;59.10;;;;;;5086694;28;20044;-70
2021/06/18 11:25:57;;;;;;;8.00;2.38;;;18.10;59.00;;;;;;5077063;28;20477;-70
2021/06/18 11:28:31;;;;;;;9.75;2.60;;;18.20;58.70;;;;;;5098922;28;20048;-70
2021/06/18 11:31:17;;;;;;;10.80;2.58;;;18.20;58.70;;;;;;5094763;28;20071;-70
2021/06/18 11:33:53;;;;;;;7.10;2.13;;;18.20;58.70;;;;;;5094534;28;20354;-70
2021/06/18 11:36:21;;;;;;;8.23;3.67;;;18.20;58.80;;;;;;5082663;28;20375;-70
2021/06/18 11:39:18;;;;;;;6.03;2.40;;;18.10;59.00;;;;;;5094382;28;20067;-70
2021/06/18 11:41:54;;;;;;;9.80;2.58;;;18.10;59.20;;;;;;5074392;28;20122;-70
2021/06/18 11:44:25;;;;;;;14.65;2.83;;;18.00;59.40;;;;;;5087681;28;20048;-70
2021/06/18 11:46:56;;;;;;;14.90;2.78;;;18.00;59.50;;;;;;5075013;28;20402;-70
2021/06/18 11:49:27;;;;;;;21.05;3.30;;;17.90;59.60;;;;;;5075843;28;20067;-69
2021/06/18 11:52:03;;;;;;;29.75;3.33;;;17.90;60.00;;;;;;5080178;28;20055;-70
2021/06/18 11:54:34;;;;;;;16.10;2.88;;;17.80;60.20;;;;;;5092932;28;20048;-70
2021/06/18 11:57:12;;;;;;;34.08;3.63;;;17.80;60.40;;;;;;5095662;28;20052;-70
2021/06/18 11:59:41;;;;;;;16.92;2.83;;;17.80;61.00;;;;;;5078115;28;20047;-70
2021/06/18 12:02:18;;;;;;;5.90;2.20;;;17.80;61.30;;;;;;5076403;28;20056;-69
2021/06/18 12:05:01;;;;;;;10.95;2.90;;;17.80;61.20;;;;;;5102738;28;20047;-70
2021/06/18 12:07:31;;;;;;;7.15;2.65;;;17.80;60.90;;;;;;5090343;28;20048;-69
2021/06/18 12:10:01;;;;;;;11.50;2.10;;;17.90;60.80;;;;;;5077047;28;20036;-70
2021/06/18 12:12:30;;;;;;;9.60;2.33;;;17.90;60.40;;;;;;5077628;28;20047;-70
2021/06/18 12:14:58;;;;;;;13.70;2.70;;;17.90;60.30;;;;;;5090085;28;20478;-70
2021/06/18 12:17:26;;;;;;;21.80;2.60;;;17.90;60.00;;;;;;5093059;28;20059;-70
2021/06/18 12:19:55;;;;;;;6.75;2.08;;;17.90;59.90;;;;;;5075441;28;20052;-70
2021/06/18 12:22:28;;;;;;;7.15;2.40;;;17.90;59.80;;;;;;5093636;28;20044;-70
2021/06/18 12:24:59;;;;;;;10.75;2.28;;;17.90;59.80;;;;;;5096726;28;20496;-70
2021/06/18 12:27:33;;;;;;;8.48;2.40;;;17.90;60.00;;;;;;5093014;28;20048;-70
2021/06/18 12:30:06;;;;;;;12.48;2.60;;;17.90;60.00;;;;;;5093797;28;20052;-70
2021/06/18 12:32:36;;;;;;;8.60;2.63;;;17.90;60.00;;;;;;5093013;28;20378;-70
2021/06/18 12:35:10;;;;;;;15.45;2.60;;;17.90;59.90;;;;;;5093711;28;20063;-70
2021/06/18 12:37:41;;;;;;;9.10;2.35;;;17.90;59.90;;;;;;5092512;28;20369;-69
2021/06/18 12:40:15;;;;;;;9.30;2.45;;;17.90;60.00;;;;;;5094397;28;20295;-70
2021/06/18 12:42:51;;;;;;;10.43;2.47;;;17.80;60.10;;;;;;5092393;28;20052;-70
2021/06/18 12:45:30;;;;;;;8.43;2.33;;;17.80;60.20;;;;;;5082639;28;20374;-70
2021/06/18 12:48:20;;;;;;;11.68;2.38;;;17.80;60.30;;;;;;5076386;28;20047;-70
2021/06/18 12:50:52;;;;;;;12.70;2.75;;;17.80;60.40;;;;;;5093616;28;20053;-70
2021/06/18 12:53:43;;;;;;;8.82;2.78;;;17.80;60.60;;;;;;5074106;28;20040;-70
2021/06/18 12:56:23;;;;;;;9.68;2.88;;;17.80;60.70;;;;;;5075652;28;20044;-70
2021/06/18 12:58:54;;;;;;;12.10;2.60;;;17.80;60.70;;;;;;5094590;28;20507;-70
2021/06/18 13:01:24;;;;;;;9.43;2.83;;;17.80;60.70;;;;;;5088421;28;20044;-70
2021/06/18 13:04:04;;;;;;;11.43;2.97;;;17.80;60.70;;;;;;5091891;28;20043;-70
2021/06/18 13:06:48;;;;;;;10.02;2.45;;;17.80;60.80;;;;;;5091927;28;20052;-70
2021/06/18 13:09:30;;;;;;;11.25;2.47;;;17.80;60.90;;;;;;5075557;28;20040;-70